createdAt,value
2022-10-01T00:01:43.373Z,16.67
2022-10-01T00:04:16.682Z,16.57
2022-10-01T00:06:45.247Z,16.80
2022-10-01T00:09:19.997Z,16.64
2022-10-01T00:11:48.342Z,16.21
2022-10-01T00:14:25.886Z,15.73
2022-10-01T00:17:00.299Z,16.16
2022-10-01T00:19:30.804Z,16.24
2022-10-01T00:22:02.275Z,16.12
2022-10-01T00:24:31.134Z,16.29
2022-10-01T00:27:02.857Z,16.40
2022-10-01T00:29:32.388Z,16.50
2022-10-01T00:32:03.393Z,16.69
2022-10-01T00:34:33.581Z,16.42
2022-10-01T00:37:04.489Z,16.48
2022-10-01T00:39:33.172Z,16.46
2022-10-01T00:42:06.970Z,16.45
2022-10-01T00:44:36.149Z,16.80
2022-10-01T00:47:12.412Z,16.57
2022-10-01T00:49:49.991Z,16.65
2022-10-01T00:52:19.663Z,16.56
2022-10-01T00:55:00.199Z,16.80
2022-10-01T00:57:31.126Z,16.90
2022-10-01T01:00:02.202Z,16.62
2022-10-01T01:02:32.996Z,16.52
2022-10-01T01:05:03.163Z,16.63
2022-10-01T01:07:36.547Z,16.64
2022-10-01T01:10:05.561Z,16.79
2022-10-01T01:12:41.769Z,16.84
2022-10-01T01:15:19.639Z,16.85
2022-10-01T01:17:52.553Z,16.89
2022-10-01T01:20:50.560Z,16.98
2022-10-01T01:23:38.692Z,16.96
2022-10-01T01:26:17.739Z,16.87
2022-10-01T01:28:59.067Z,16.94
2022-10-01T01:31:33.189Z,16.89
2022-10-01T01:34:02.351Z,16.90
2022-10-01T01:36:37.302Z,16.83
2022-10-01T01:39:07.289Z,16.78
2022-10-01T01:41:38.480Z,16.74
2022-10-01T01:44:09.949Z,16.76
2022-10-01T01:46:49.961Z,16.74
2022-10-01T01:56:59.341Z,16.64
2022-10-01T01:59:48.117Z,16.76
2022-10-01T02:02:19.198Z,16.75
2022-10-01T02:04:56.096Z,16.72
2022-10-01T02:07:29.200Z,16.73
2022-10-01T02:10:01.327Z,16.74
2022-10-01T02:12:32.734Z,16.71
2022-10-01T02:15:05.557Z,16.80
2022-10-01T02:17:35.527Z,16.75
2022-10-01T02:20:08.051Z,16.51
2022-10-01T02:22:40.441Z,16.61
2022-10-01T02:25:11.804Z,16.62
2022-10-01T02:27:45.622Z,16.73
2022-10-01T02:30:25.878Z,16.52
2022-10-01T02:32:56.562Z,16.50
2022-10-01T02:35:29.317Z,16.70
2022-10-01T02:38:04.315Z,16.71
2022-10-01T02:40:33.779Z,16.66
2022-10-01T02:43:08.365Z,16.47
2022-10-01T02:45:47.464Z,16.69
2022-10-01T02:48:28.564Z,16.54
2022-10-01T02:50:59.384Z,16.47
2022-10-01T03:22:10.246Z,16.86
2022-10-01T03:24:47.945Z,16.95
2022-10-01T03:27:17.739Z,16.78
2022-10-01T03:29:48.981Z,16.58
2022-10-01T03:32:17.735Z,16.68
2022-10-01T03:34:51.554Z,16.70
2022-10-01T04:08:06.745Z,16.40
2022-10-01T04:10:36.185Z,16.62
2022-10-01T04:13:04.911Z,16.32
2022-10-01T04:15:33.854Z,16.26
2022-10-01T04:18:06.022Z,16.23
2022-10-01T04:20:34.664Z,16.34
2022-10-01T04:23:09.039Z,16.39
2022-10-01T04:25:38.760Z,16.42
2022-10-01T04:28:10.222Z,16.46
2022-10-01T04:30:39.164Z,16.52
2022-10-01T04:33:12.130Z,16.64
2022-10-01T04:35:40.827Z,16.48
2022-10-01T04:38:17.745Z,16.51
2022-10-01T04:40:57.564Z,16.48
2022-10-01T04:43:27.490Z,16.52
2022-10-01T04:45:57.310Z,16.46
2022-10-01T04:48:26.414Z,16.42
2022-10-01T04:50:58.344Z,16.72
2022-10-01T04:53:26.997Z,16.55
2022-10-01T04:56:01.208Z,16.44
2022-10-01T04:58:31.846Z,16.63
2022-10-01T05:01:02.307Z,16.62
2022-10-01T05:03:31.681Z,16.70
2022-10-01T05:06:01.997Z,16.77
2022-10-01T05:08:31.265Z,16.69
2022-10-01T05:11:01.497Z,16.76
2022-10-01T05:13:31.935Z,16.72
2022-10-01T05:16:03.807Z,16.66
2022-10-01T05:18:32.490Z,16.56
2022-10-01T05:21:05.846Z,16.54
2022-10-01T06:01:20.624Z,16.39
2022-10-01T06:03:57.551Z,16.45
2022-10-01T06:13:27.308Z,16.52
2022-10-01T06:16:13.277Z,16.47
2022-10-01T06:18:49.586Z,16.72
2022-10-01T06:21:19.072Z,16.67
2022-10-01T06:23:50.522Z,16.63
2022-10-01T06:26:21.494Z,16.56
2022-10-01T06:28:51.478Z,16.73
2022-10-01T06:31:25.319Z,16.78
2022-10-01T06:33:55.066Z,16.84
2022-10-01T06:36:24.913Z,16.76
2022-10-01T06:38:53.265Z,16.75
2022-10-01T06:41:21.802Z,16.76
2022-10-01T06:43:57.982Z,16.77
2022-10-01T06:46:32.493Z,16.74
2022-10-01T06:49:02.441Z,16.77
2022-10-01T06:51:51.543Z,16.89
2022-10-01T06:54:23.198Z,16.97
2022-10-01T06:56:54.144Z,16.91
2022-10-01T06:59:22.742Z,16.82
2022-10-01T07:01:57.241Z,16.91
2022-10-01T07:04:27.207Z,16.89
2022-10-01T07:06:57.711Z,16.70
2022-10-01T07:09:28.491Z,16.91
2022-10-01T07:11:57.322Z,16.93
2022-10-01T07:14:26.296Z,16.97
2022-10-01T07:16:57.719Z,16.98
2022-10-01T07:19:31.817Z,17.01
2022-10-01T07:22:01.091Z,16.93
2022-10-01T07:24:29.734Z,16.88
2022-10-01T07:27:07.252Z,16.94
2022-10-01T07:29:36.174Z,17.01
2022-10-01T07:32:08.823Z,16.93
2022-10-01T07:34:40.656Z,17.17
2022-10-01T07:37:09.530Z,17.15
2022-10-01T07:39:38.127Z,17.36
2022-10-01T07:42:09.429Z,17.31
2022-10-01T07:44:38.005Z,17.32
2022-10-01T07:47:08.803Z,17.17
2022-10-01T07:49:37.081Z,17.35
2022-10-01T07:52:15.891Z,17.40
2022-10-01T07:54:44.216Z,17.45
2022-10-01T07:57:20.859Z,17.52
2022-10-01T07:59:54.858Z,17.49
2022-10-01T08:02:24.602Z,17.49
2022-10-01T08:07:48.790Z,17.66
2022-10-01T08:10:24.215Z,17.55
2022-10-01T08:12:52.948Z,17.71
2022-10-01T08:15:22.507Z,17.79
2022-10-01T08:17:50.800Z,17.88
2022-10-01T08:20:21.510Z,17.95
2022-10-01T08:22:51.444Z,18.05
2022-10-01T08:25:26.073Z,17.83
2022-10-01T08:27:54.876Z,18.07
2022-10-01T08:30:29.248Z,18.07
2022-10-01T08:32:57.940Z,18.07
2022-10-01T08:35:28.996Z,17.93
2022-10-01T08:38:06.110Z,18.04
2022-10-01T08:40:36.883Z,18.21
2022-10-01T08:43:12.847Z,18.26
2022-10-01T08:45:43.263Z,18.32
2022-10-01T08:48:16.734Z,18.22
2022-10-01T08:50:46.682Z,18.19
2022-10-01T08:53:26.402Z,18.37
2022-10-01T08:55:55.816Z,18.20
2022-10-01T08:58:25.067Z,18.41
2022-10-01T09:00:56.453Z,18.42
2022-10-01T09:03:26.318Z,18.53
2022-10-01T09:06:05.028Z,18.41
2022-10-01T09:08:44.619Z,18.49
2022-10-01T09:11:25.351Z,18.53
2022-10-01T09:13:58.042Z,18.68
2022-10-01T09:16:30.201Z,18.66
2022-10-01T09:19:06.760Z,18.45
2022-10-01T09:21:39.883Z,18.63
2022-10-01T09:24:11.541Z,18.93
2022-10-01T09:26:39.808Z,19.10
2022-10-01T09:29:10.327Z,19.22
2022-10-01T09:31:39.166Z,19.33
2022-10-01T09:34:13.772Z,19.52
2022-10-01T09:36:57.498Z,19.32
2022-10-01T09:39:43.285Z,19.47
2022-10-01T09:42:11.794Z,19.68
2022-10-01T09:44:40.725Z,19.80
2022-10-01T09:47:21.633Z,19.80
2022-10-01T09:49:50.468Z,19.93
2022-10-01T09:52:20.267Z,20.00
2022-10-01T09:54:50.382Z,20.17
2022-10-01T09:57:23.645Z,20.14
2022-10-01T09:59:54.945Z,20.16
2022-10-01T10:02:26.877Z,20.23
2022-10-01T10:05:11.034Z,20.18
2022-10-01T10:07:50.886Z,20.16
2022-10-01T10:10:25.589Z,20.11
2022-10-01T10:12:58.316Z,20.22
2022-10-01T10:15:31.240Z,20.36
2022-10-01T10:17:59.706Z,20.24
2022-10-01T10:20:31.154Z,20.49
2022-10-01T10:23:17.782Z,20.50
2022-10-01T10:26:02.821Z,20.70
2022-10-01T10:28:43.624Z,20.75
2022-10-01T10:31:16.840Z,20.91
2022-10-01T10:33:52.125Z,20.81
2022-10-01T10:36:29.321Z,20.99
2022-10-01T10:38:57.623Z,20.97
2022-10-01T10:41:27.379Z,21.10
2022-10-01T10:43:58.906Z,20.93
2022-10-01T10:46:30.526Z,20.94
2022-10-01T10:49:12.169Z,20.96
2022-10-01T10:51:50.334Z,20.95
2022-10-01T10:54:23.181Z,21.01
2022-10-01T10:56:56.166Z,20.71
2022-10-01T10:59:25.792Z,20.78
2022-10-01T11:01:54.664Z,20.69
2022-10-01T11:04:25.992Z,20.62
2022-10-01T11:06:55.419Z,20.65
2022-10-01T11:09:23.713Z,20.82
2022-10-01T11:11:58.179Z,20.77
2022-10-01T11:14:52.304Z,20.79
2022-10-01T11:17:31.046Z,20.87
2022-10-01T11:20:19.962Z,21.07
2022-10-01T11:22:53.975Z,21.24
2022-10-01T11:25:28.968Z,21.41
2022-10-01T11:27:58.912Z,21.54
2022-10-01T11:30:33.663Z,21.50
2022-10-01T11:33:04.808Z,21.69
2022-10-01T11:35:44.186Z,21.66
2022-10-01T11:38:25.353Z,21.77
2022-10-01T11:40:55.814Z,21.62
2022-10-01T11:43:25.103Z,21.78
2022-10-01T11:45:58.619Z,21.68
2022-10-01T11:48:27.840Z,21.46
2022-10-01T11:51:01.439Z,21.64
2022-10-01T11:53:33.592Z,21.70
2022-10-01T11:56:29.799Z,21.69
2022-10-01T11:59:06.145Z,21.65
2022-10-01T12:01:36.908Z,21.69
2022-10-01T12:04:07.853Z,21.49
2022-10-01T12:06:38.114Z,21.68
2022-10-01T12:09:08.290Z,21.67
2022-10-01T12:11:37.391Z,21.94
2022-10-01T12:14:11.256Z,21.98
2022-10-01T12:16:43.159Z,21.95
2022-10-01T12:19:13.943Z,22.12
2022-10-01T12:21:42.938Z,22.08
2022-10-01T12:24:13.076Z,22.11
2022-10-01T12:26:43.997Z,21.95
2022-10-01T12:29:14.599Z,21.91
2022-10-01T12:31:45.706Z,21.87
2022-10-01T12:34:16.232Z,21.65
2022-10-01T12:36:46.820Z,21.70
2022-10-01T12:39:18.986Z,21.64
2022-10-01T12:41:50.868Z,21.47
2022-10-01T12:44:27.275Z,21.37
2022-10-01T12:47:03.607Z,21.44
2022-10-01T12:49:33.077Z,21.45
2022-10-01T12:52:06.501Z,21.45
2022-10-01T12:54:53.096Z,21.56
2022-10-01T12:57:28.924Z,21.42
2022-10-01T13:00:01.674Z,21.66
2022-10-01T13:02:44.053Z,21.79
2022-10-01T13:05:21.084Z,21.58
2022-10-01T13:07:56.600Z,21.64
2022-10-01T13:10:43.057Z,21.81
2022-10-01T13:13:14.977Z,21.89
2022-10-01T13:15:49.643Z,22.02
2022-10-01T13:18:24.718Z,21.99
2022-10-01T13:20:55.376Z,22.13
2022-10-01T13:23:25.325Z,22.14
2022-10-01T13:26:08.841Z,22.22
2022-10-01T13:28:44.571Z,22.17
2022-10-01T13:31:14.793Z,22.11
2022-10-01T13:33:54.242Z,22.20
2022-10-01T13:36:29.319Z,22.21
2022-10-01T13:38:57.606Z,21.97
2022-10-01T13:41:27.143Z,22.09
2022-10-01T13:43:59.886Z,22.17
2022-10-01T13:49:59.300Z,20.62
2022-10-01T13:52:28.119Z,20.32
2022-10-01T13:55:03.226Z,20.06
2022-10-01T13:57:34.183Z,20.24
2022-10-01T14:00:04.119Z,20.10
2022-10-01T14:02:37.798Z,19.92
2022-10-01T14:05:30.493Z,20.04
2022-10-01T14:08:00.262Z,19.70
2022-10-01T14:10:32.857Z,19.63
2022-10-01T14:13:21.678Z,19.74
2022-10-01T14:16:03.478Z,19.82
2022-10-01T14:18:36.696Z,19.59
2022-10-01T14:21:12.260Z,19.95
2022-10-01T14:23:43.583Z,19.79
2022-10-01T14:26:19.133Z,19.93
2022-10-01T14:28:49.939Z,20.11
2022-10-01T14:31:21.023Z,20.06
2022-10-01T14:34:10.613Z,20.12
2022-10-01T14:36:48.439Z,19.88
2022-10-01T14:39:17.574Z,19.83
2022-10-01T14:41:46.799Z,19.54
2022-10-01T14:44:28.467Z,19.88
2022-10-01T14:46:58.001Z,19.82
2022-10-01T14:49:27.325Z,19.98
2022-10-01T14:51:59.750Z,19.78
2022-10-01T14:54:41.059Z,19.40
2022-10-01T14:57:17.760Z,19.41
2022-10-01T14:59:47.068Z,19.50
2022-10-01T15:02:18.534Z,19.27
2022-10-01T15:04:47.859Z,19.24
2022-10-01T15:07:17.772Z,19.32
2022-10-01T15:09:46.291Z,19.16
2022-10-01T15:12:18.481Z,18.99
2022-10-01T15:14:47.054Z,18.71
2022-10-01T15:17:22.340Z,18.47
2022-10-01T15:19:52.201Z,18.54
2022-10-01T15:22:25.310Z,18.61
2022-10-01T15:24:59.370Z,18.46
2022-10-01T15:27:35.143Z,18.26
2022-10-01T15:30:06.266Z,17.97
2022-10-01T15:32:34.833Z,18.00
2022-10-01T15:35:07.273Z,18.00
2022-10-01T15:37:37.932Z,18.08
2022-10-01T15:40:09.760Z,18.06
2022-10-01T15:42:38.709Z,17.70
2022-10-01T15:45:22.272Z,17.53
2022-10-01T15:47:52.323Z,17.55
2022-10-01T15:50:21.335Z,17.66
2022-10-01T15:52:59.908Z,17.84
2022-10-01T15:55:36.853Z,17.68
2022-10-01T15:58:11.086Z,17.71
2022-10-01T16:00:43.424Z,17.57
2022-10-01T16:03:24.115Z,17.62
2022-10-01T16:05:54.944Z,17.56
2022-10-01T16:08:35.607Z,17.46
2022-10-01T16:11:16.501Z,17.64
2022-10-01T16:13:47.293Z,17.53
2022-10-01T16:16:23.482Z,17.58
2022-10-01T16:18:54.512Z,17.47
2022-10-01T16:21:24.268Z,17.42
2022-10-01T16:23:57.766Z,17.33
2022-10-01T16:26:35.277Z,17.52
2022-10-01T16:29:06.802Z,17.38
2022-10-01T16:31:36.050Z,17.25
2022-10-01T16:34:10.308Z,16.92
2022-10-01T16:36:41.509Z,17.24
2022-10-01T16:39:16.094Z,17.11
2022-10-01T16:41:44.792Z,16.97
2022-10-01T16:44:15.751Z,17.36
2022-10-01T16:46:44.074Z,17.00
2022-10-01T16:49:18.354Z,17.33
2022-10-01T16:51:48.103Z,17.09
2022-10-01T16:54:24.633Z,16.80
2022-10-01T16:56:53.669Z,16.93
2022-10-01T16:59:29.997Z,17.10
2022-10-01T17:02:02.308Z,16.68
2022-10-01T17:04:34.084Z,16.99
2022-10-01T17:07:05.318Z,16.68
2022-10-01T17:09:35.243Z,16.83
2022-10-01T17:12:06.626Z,16.91
2022-10-01T17:14:35.191Z,16.89
2022-10-01T17:17:09.457Z,17.04
2022-10-01T17:19:38.002Z,16.90
2022-10-01T17:22:08.306Z,16.78
2022-10-01T17:24:38.415Z,16.59
2022-10-01T17:27:09.338Z,16.63
2022-10-01T17:29:39.110Z,16.53
2022-10-01T17:32:18.744Z,16.21
2022-10-01T17:34:47.405Z,16.30
2022-10-01T17:37:24.046Z,16.47
2022-10-01T17:39:54.428Z,16.33
2022-10-01T17:42:23.132Z,16.48
2022-10-01T17:45:00.133Z,16.48
2022-10-01T17:47:28.743Z,16.60
2022-10-01T17:49:57.464Z,16.62
2022-10-01T17:52:25.754Z,16.54
2022-10-01T17:54:55.981Z,16.46
2022-10-01T17:57:24.938Z,16.32
2022-10-01T18:00:01.289Z,16.07
2022-10-01T18:02:44.421Z,16.11
2022-10-01T18:05:14.929Z,16.39
2022-10-01T18:07:45.368Z,16.42
2022-10-01T18:10:15.261Z,16.12
2022-10-01T18:12:46.055Z,16.41
2022-10-01T18:15:14.768Z,16.46
2022-10-01T18:17:51.496Z,16.49
2022-10-01T18:20:24.380Z,16.14
2022-10-01T18:22:53.009Z,16.20
2022-10-01T18:25:22.890Z,16.21
2022-10-01T18:27:51.446Z,16.04
2022-10-01T18:30:20.242Z,16.17
2022-10-01T18:32:50.623Z,15.95
2022-10-01T18:35:23.653Z,15.95
2022-10-01T18:37:53.753Z,16.07
2022-10-01T18:40:24.610Z,16.00
2022-10-01T18:42:58.177Z,15.79
2022-10-01T18:45:36.517Z,16.01
2022-10-01T18:48:09.741Z,15.93
2022-10-01T18:50:47.814Z,16.01
2022-10-01T18:53:26.856Z,15.73
2022-10-01T18:56:10.302Z,15.73
2022-10-01T18:58:45.360Z,15.79
2022-10-01T19:01:16.009Z,15.81
2022-10-01T19:03:55.585Z,15.92
2022-10-01T19:06:39.013Z,15.77
2022-10-01T19:09:10.631Z,15.82
2022-10-01T19:11:41.174Z,15.95
2022-10-01T19:14:16.518Z,15.85
2022-10-01T19:16:46.169Z,15.71
2022-10-01T19:19:26.253Z,15.69
2022-10-01T19:22:02.825Z,15.44
2022-10-01T19:24:41.050Z,15.63
2022-10-01T19:27:13.651Z,15.66
2022-10-01T19:29:57.433Z,15.70
2022-10-01T19:32:30.868Z,15.55
2022-10-01T19:35:04.477Z,15.58
2022-10-01T19:37:33.287Z,15.62
2022-10-01T19:40:07.247Z,15.41
2022-10-01T19:42:36.427Z,15.52
2022-10-01T19:45:13.304Z,15.26
2022-10-01T19:47:45.882Z,15.32
2022-10-01T19:50:19.862Z,15.23
2022-10-01T19:53:08.494Z,15.30
2022-10-01T19:55:40.320Z,15.46
2022-10-01T19:58:15.181Z,15.57
2022-10-01T20:00:47.340Z,15.28
2022-10-01T20:03:23.531Z,15.61
2022-10-01T20:05:55.537Z,15.68
2022-10-01T20:08:29.203Z,15.74
2022-10-01T20:11:01.285Z,15.66
2022-10-01T20:13:36.379Z,15.38
2022-10-01T20:16:09.710Z,15.50
2022-10-01T20:18:39.796Z,15.78
2022-10-01T20:21:12.448Z,15.49
2022-10-01T20:23:43.592Z,15.79
2022-10-01T20:26:15.190Z,15.73
2022-10-01T20:28:45.669Z,15.97
2022-10-01T20:31:16.687Z,16.11
2022-10-01T20:33:48.047Z,16.00
2022-10-01T20:36:17.589Z,15.88
2022-10-01T20:38:48.653Z,15.92
2022-10-01T20:41:18.106Z,16.12
2022-10-01T20:43:51.067Z,16.05
2022-10-01T20:46:22.747Z,16.09
2022-10-01T20:48:56.352Z,16.03
2022-10-01T20:51:25.209Z,15.74
2022-10-01T20:53:54.658Z,16.04
2022-10-01T20:56:23.266Z,16.16
2022-10-01T20:58:54.238Z,16.15
2022-10-01T21:01:24.898Z,16.18
2022-10-01T21:03:55.694Z,16.06
2022-10-01T21:06:25.713Z,16.06
2022-10-01T21:08:57.516Z,16.07
2022-10-01T21:11:28.173Z,15.90
2022-10-01T21:13:58.662Z,16.00
2022-10-01T21:16:48.509Z,15.83
2022-10-01T21:19:27.763Z,15.77
2022-10-01T21:22:05.802Z,15.61
2022-10-01T21:25:11.923Z,15.90
2022-10-01T21:27:48.181Z,15.54
2022-10-01T21:30:17.035Z,15.63
2022-10-01T21:33:02.511Z,15.58
2022-10-01T21:35:33.466Z,15.56
2022-10-01T21:38:06.379Z,15.45
2022-10-01T21:40:38.674Z,15.55
2022-10-01T21:43:10.073Z,15.60
2022-10-01T21:45:39.888Z,15.65
2022-10-01T21:48:30.282Z,15.78
2022-10-01T21:51:05.664Z,15.43
2022-10-01T21:53:53.741Z,15.52
2022-10-01T21:56:29.492Z,15.61
2022-10-01T21:59:06.791Z,15.22
2022-10-01T22:01:55.633Z,15.44
2022-10-01T22:04:43.398Z,15.30
2022-10-01T22:07:14.652Z,15.00
2022-10-01T22:09:51.210Z,15.15
2022-10-01T22:12:42.653Z,15.17
2022-10-01T22:15:16.800Z,15.05
2022-10-01T22:17:46.175Z,15.05
2022-10-01T22:20:16.822Z,14.93
2022-10-01T22:22:47.840Z,14.89
2022-10-01T22:25:19.533Z,14.90
2022-10-01T22:27:49.534Z,14.65
2022-10-01T22:30:18.620Z,14.75
2022-10-01T22:32:49.744Z,14.89
2022-10-01T22:35:26.230Z,14.66
2022-10-01T22:38:02.848Z,14.78
2022-10-01T22:40:33.467Z,14.66
2022-10-01T22:43:02.484Z,14.54
2022-10-01T22:45:35.640Z,14.38
2022-10-01T22:48:06.934Z,14.43
2022-10-01T22:50:44.553Z,14.37
2022-10-01T22:53:27.038Z,14.39
2022-10-01T22:55:58.460Z,14.43
2022-10-01T22:58:40.861Z,14.22
2022-10-01T23:01:13.000Z,14.47
2022-10-01T23:03:56.895Z,14.27
2022-10-01T23:06:48.318Z,14.25
2022-10-01T23:09:31.056Z,14.37
2022-10-01T23:12:01.923Z,14.41
2022-10-01T23:14:35.752Z,14.49
2022-10-01T23:17:06.262Z,14.64
2022-10-01T23:19:37.339Z,14.72
2022-10-01T23:22:11.083Z,14.51
2022-10-01T23:24:48.080Z,14.60
2022-10-01T23:27:21.924Z,14.46
2022-10-01T23:30:00.769Z,14.55
2022-10-01T23:32:47.150Z,14.53
2022-10-01T23:35:16.214Z,14.50
2022-10-01T23:37:52.665Z,14.60
2022-10-01T23:40:28.976Z,14.51
2022-10-01T23:42:58.307Z,14.75
2022-10-01T23:45:28.866Z,14.51
2022-10-01T23:47:59.521Z,14.85
2022-10-01T23:50:32.370Z,14.71
2022-10-01T23:53:16.530Z,14.75
2022-10-01T23:56:04.446Z,14.85
2022-10-01T23:58:36.609Z,14.84
